createdAt,value
2023-01-09T00:03:56.825Z,1.3
2023-01-09T00:06:39.191Z,1.6
2023-01-09T00:11:39.613Z,1.3
2023-01-09T00:16:40.070Z,1.2
2023-01-09T00:21:40.557Z,1.5
2023-01-09T00:26:41.055Z,0.6
2023-01-09T00:31:41.520Z,1.1
2023-01-09T00:36:41.902Z,0.7
2023-01-09T00:41:42.442Z,0.6
2023-01-09T00:46:42.804Z,1.0
2023-01-09T00:51:43.299Z,0.7
2023-01-09T00:56:43.821Z,0.6
2023-01-09T01:01:44.517Z,1.0
2023-01-09T01:06:44.786Z,1.0
2023-01-09T01:11:45.672Z,0.8
2023-01-09T01:16:45.795Z,1.0
2023-01-09T01:21:46.243Z,1.1
2023-01-09T01:26:46.685Z,1.1
2023-01-09T01:31:47.120Z,0.9
2023-01-09T01:36:47.660Z,1.3
2023-01-09T01:41:48.160Z,1.5
2023-01-09T01:46:48.600Z,1.1
2023-01-09T01:51:49.057Z,1.4
2023-01-09T01:56:49.732Z,1.4
2023-01-09T02:01:50.110Z,1.2
2023-01-09T02:06:50.551Z,1.5
2023-01-09T02:11:51.049Z,1.0
2023-01-09T02:16:51.502Z,1.1
2023-01-09T02:21:51.883Z,1.1
2023-01-09T02:26:52.521Z,1.2
2023-01-09T02:31:52.818Z,0.9
2023-01-09T02:36:53.292Z,1.1
2023-01-09T02:41:53.805Z,1.0
2023-01-09T02:46:54.181Z,0.7
2023-01-09T02:51:54.662Z,1.3
2023-01-09T02:56:55.332Z,0.8
2023-01-09T03:01:55.867Z,0.8
2023-01-09T03:06:56.164Z,1.1
2023-01-09T03:11:56.832Z,1.0
2023-01-09T03:16:57.105Z,1.0
2023-01-09T03:21:57.560Z,0.8
2023-01-09T03:26:58.136Z,0.9
2023-01-09T03:31:58.612Z,1.2
2023-01-09T03:36:59.052Z,1.1
2023-01-09T03:41:59.682Z,1.1
2023-01-09T03:46:59.998Z,1.2
2023-01-09T03:52:00.922Z,1.4
2023-01-09T03:57:01.025Z,1.4
2023-01-09T04:02:03.705Z,1.1
2023-01-09T04:07:01.935Z,1.9
2023-01-09T04:12:02.557Z,1.2
2023-01-09T04:17:02.949Z,1.2
2023-01-09T04:22:03.454Z,1.5
2023-01-09T04:27:04.022Z,2.1
2023-01-09T04:32:04.495Z,1.7
2023-01-09T04:37:04.942Z,1.1
2023-01-09T04:42:05.553Z,1.5
2023-01-09T04:47:05.838Z,1.8
2023-01-09T04:52:06.356Z,1.9
2023-01-09T04:57:07.005Z,2.3
2023-01-09T05:02:07.551Z,1.3
2023-01-09T05:07:07.789Z,1.7
2023-01-09T05:12:08.443Z,1.5
2023-01-09T05:17:08.754Z,1.3
2023-01-09T05:22:09.323Z,1.7
2023-01-09T05:27:09.862Z,1.5
2023-01-09T05:32:10.309Z,1.4
2023-01-09T05:37:10.656Z,1.5
2023-01-09T05:42:11.253Z,1.4
2023-01-09T05:47:11.790Z,1.5
2023-01-09T05:52:12.227Z,2.3
2023-01-09T05:57:13.059Z,2.0
2023-01-09T06:02:13.227Z,2.0
2023-01-09T06:07:18.044Z,2.3
2023-01-09T06:12:14.140Z,1.5
2023-01-09T06:17:14.602Z,1.8
2023-01-09T06:22:14.982Z,1.9
2023-01-09T06:27:15.577Z,1.9
2023-01-09T06:32:15.869Z,2.4
2023-01-09T06:37:16.419Z,2.4
2023-01-09T06:42:16.860Z,2.1
2023-01-09T06:47:17.420Z,2.7
2023-01-09T06:52:17.722Z,3.1
2023-01-09T06:57:18.353Z,2.6
2023-01-09T07:02:18.621Z,2.5
2023-01-09T07:07:19.080Z,2.5
2023-01-09T07:12:19.587Z,1.8
2023-01-09T07:17:19.950Z,1.6
2023-01-09T07:22:20.325Z,2.3
2023-01-09T07:27:20.808Z,2.1
2023-01-09T07:32:21.200Z,2.2
2023-01-09T07:37:21.596Z,2.0
2023-01-09T07:42:22.209Z,1.8
2023-01-09T07:47:22.648Z,2.5
2023-01-09T07:52:23.022Z,1.8
2023-01-09T07:57:23.787Z,1.9
2023-01-09T08:02:24.088Z,1.8
2023-01-09T08:07:24.514Z,1.9
2023-01-09T08:12:24.943Z,1.6
2023-01-09T08:17:26.619Z,2.1
2023-01-09T08:22:25.875Z,2.0
2023-01-09T08:27:26.437Z,2.0
2023-01-09T08:32:26.865Z,2.1
2023-01-09T08:37:27.351Z,1.9
2023-01-09T08:42:27.761Z,1.7
2023-01-09T08:47:28.124Z,1.8
2023-01-09T08:52:28.644Z,2.1
2023-01-09T08:57:29.137Z,1.7
2023-01-09T09:02:29.562Z,1.6
2023-01-09T09:07:29.924Z,1.2
2023-01-09T09:12:30.550Z,2.0
2023-01-09T09:17:30.893Z,2.0
2023-01-09T09:22:31.383Z,2.0
2023-01-09T09:27:31.855Z,1.9
2023-01-09T09:32:32.377Z,1.6
2023-01-09T09:37:32.664Z,2.1
2023-01-09T09:42:33.273Z,1.7
2023-01-09T09:47:33.703Z,1.8
2023-01-09T09:52:34.102Z,1.7
2023-01-09T09:57:34.757Z,1.4
2023-01-09T10:02:35.050Z,1.7
2023-01-09T10:07:35.594Z,1.2
2023-01-09T10:12:36.034Z,1.7
2023-01-09T10:17:38.236Z,1.0
2023-01-09T10:22:36.892Z,2.0
2023-01-09T10:27:37.446Z,1.4
2023-01-09T10:32:37.808Z,1.2
2023-01-09T10:37:38.379Z,1.0
2023-01-09T10:42:38.868Z,1.3
2023-01-09T10:47:39.267Z,1.1
2023-01-09T10:52:39.735Z,0.8
2023-01-09T10:57:41.476Z,0.9
2023-01-09T11:02:40.708Z,0.7
2023-01-09T11:07:41.202Z,0.5
2023-01-09T11:12:41.635Z,0.7
2023-01-09T11:17:42.092Z,0.9
2023-01-09T11:22:42.597Z,1.1
2023-01-09T11:27:43.055Z,0.7
2023-01-09T11:32:43.558Z,0.6
2023-01-09T11:37:43.954Z,0.9
2023-01-09T11:42:44.533Z,0.8
2023-01-09T11:47:44.843Z,0.7
2023-01-09T11:52:45.498Z,0.5
2023-01-09T11:57:46.163Z,0.6
2023-01-09T12:02:46.581Z,0.7
2023-01-09T12:07:46.803Z,0.7
2023-01-09T12:12:47.467Z,0.9
2023-01-09T12:17:47.784Z,1.0
2023-01-09T12:22:48.325Z,1.2
2023-01-09T12:27:48.815Z,0.6
2023-01-09T12:32:49.197Z,1.3
2023-01-09T12:37:49.712Z,0.9
2023-01-09T12:42:50.318Z,1.1
2023-01-09T12:47:50.736Z,1.0
2023-01-09T12:52:51.183Z,0.9
2023-01-09T12:57:52.015Z,1.3
2023-01-09T13:03:03.612Z,0.9
2023-01-09T13:07:52.690Z,0.8
2023-01-09T13:12:53.218Z,0.5
2023-01-09T13:17:53.663Z,0.8
2023-01-09T13:22:54.064Z,0.9
2023-01-09T13:27:54.724Z,0.7
2023-01-09T13:32:55.013Z,0.6
2023-01-09T13:37:55.587Z,0.9
2023-01-09T13:42:56.027Z,1.0
2023-01-09T13:47:56.480Z,0.8
2023-01-09T13:52:56.953Z,0.6
2023-01-09T13:57:57.572Z,0.8
2023-01-09T14:02:58.140Z,1.0
2023-01-09T14:07:58.664Z,0.9
2023-01-09T14:12:59.267Z,0.9
2023-01-09T14:17:59.736Z,0.5
2023-01-09T14:23:41.856Z,0.8
2023-01-09T14:28:00.790Z,0.5
2023-01-09T14:33:01.175Z,0.8
2023-01-09T14:38:01.733Z,0.7
2023-01-09T14:43:02.173Z,0.7
2023-01-09T14:48:02.714Z,1.5
2023-01-09T14:53:03.125Z,0.9
2023-01-09T14:58:03.793Z,0.6
2023-01-09T15:03:04.122Z,0.7
2023-01-09T15:08:04.733Z,0.9
2023-01-09T15:13:05.222Z,0.6
2023-01-09T15:18:05.673Z,0.6
2023-01-09T15:23:06.159Z,0.8
2023-01-09T15:28:06.716Z,0.7
2023-01-09T15:33:07.031Z,0.7
2023-01-09T15:38:07.593Z,1.1
2023-01-09T15:43:08.120Z,1.0
2023-01-09T15:48:08.527Z,1.3
2023-01-09T15:53:08.952Z,1.2
2023-01-09T15:58:09.676Z,1.3
2023-01-09T16:03:09.978Z,1.3
2023-01-09T16:08:10.432Z,1.7
2023-01-09T16:13:10.953Z,1.6
2023-01-09T16:18:11.434Z,1.8
2023-01-09T16:23:11.935Z,1.4
2023-01-09T16:28:12.604Z,1.2
2023-01-09T16:33:12.953Z,1.2
2023-01-09T16:38:13.505Z,1.4
2023-01-09T16:43:13.980Z,1.5
2023-01-09T16:48:19.413Z,1.6
2023-01-09T16:53:14.981Z,2.0
2023-01-09T16:58:18.666Z,1.7
2023-01-09T17:03:16.001Z,1.0
2023-01-09T17:08:16.477Z,1.3
2023-01-09T17:13:16.962Z,1.4
2023-01-09T17:18:17.468Z,1.6
2023-01-09T17:23:17.945Z,2.3
2023-01-09T17:28:18.503Z,1.7
2023-01-09T17:33:18.905Z,1.3
2023-01-09T17:38:19.316Z,1.8
2023-01-09T17:43:19.894Z,2.0
2023-01-09T17:48:24.811Z,1.5
2023-01-09T17:53:20.873Z,1.9
2023-01-09T17:58:21.687Z,1.4
2023-01-09T18:03:21.816Z,1.7
2023-01-09T18:08:22.371Z,1.6
2023-01-09T18:13:22.930Z,1.9
2023-01-09T18:18:23.351Z,2.0
2023-01-09T18:23:23.769Z,1.4
2023-01-09T18:28:24.473Z,1.9
2023-01-09T18:33:24.764Z,1.7
2023-01-09T18:38:25.270Z,1.8
2023-01-09T18:43:25.808Z,2.1
2023-01-09T18:48:26.222Z,2.2
2023-01-09T18:53:26.715Z,1.6
2023-01-09T18:58:27.541Z,1.4
2023-01-09T19:03:27.679Z,1.5
2023-01-09T19:08:28.210Z,1.9
2023-01-09T19:13:28.782Z,1.6
2023-01-09T19:18:29.293Z,1.3
2023-01-09T19:23:29.656Z,1.0
2023-01-09T19:28:30.358Z,1.4
2023-01-09T19:33:30.654Z,1.6
2023-01-09T19:38:31.099Z,1.8
2023-01-09T19:43:31.762Z,1.5
2023-01-09T19:48:32.445Z,1.4
2023-01-09T19:53:32.645Z,1.7
2023-01-09T19:58:33.604Z,1.4
2023-01-09T20:03:33.573Z,1.6
2023-01-09T20:08:34.442Z,1.7
2023-01-09T20:13:34.759Z,1.7
2023-01-09T20:18:35.118Z,2.3
2023-01-09T20:23:35.710Z,2.3
2023-01-09T20:28:36.253Z,1.8
2023-01-09T20:33:36.661Z,1.2
2023-01-09T20:38:37.221Z,1.5
2023-01-09T20:43:37.771Z,1.7
2023-01-09T20:48:38.213Z,1.6
2023-01-09T20:53:38.724Z,2.2
2023-01-09T20:58:39.856Z,2.1
2023-01-09T21:03:39.674Z,2.0
2023-01-09T21:08:40.226Z,1.6
2023-01-09T21:13:40.855Z,1.2
2023-01-09T21:18:41.164Z,1.7
2023-01-09T21:23:41.740Z,1.3
2023-01-09T21:28:42.163Z,1.4
2023-01-09T21:33:47.309Z,1.6
2023-01-09T21:38:43.060Z,2.1
2023-01-09T21:43:43.637Z,1.6
2023-01-09T21:48:44.068Z,1.9
2023-01-09T21:53:44.527Z,1.3
2023-01-09T21:58:45.342Z,1.4
2023-01-09T22:03:45.616Z,1.3
2023-01-09T22:08:46.019Z,1.5
2023-01-09T22:13:46.575Z,1.0
2023-01-09T22:18:47.051Z,2.1
2023-01-09T22:23:47.508Z,1.8
2023-01-09T22:28:48.118Z,1.4
2023-01-09T22:33:48.598Z,2.0
2023-01-09T22:38:49.010Z,1.7
2023-01-09T22:43:49.730Z,1.8
2023-01-09T22:48:50.025Z,2.2
2023-01-09T22:53:50.572Z,2.4
2023-01-09T22:58:51.325Z,2.7
2023-01-09T23:03:51.527Z,2.3
2023-01-09T23:08:51.994Z,2.4
2023-01-09T23:13:52.774Z,2.0
2023-01-09T23:18:53.027Z,1.2
2023-01-09T23:23:53.576Z,1.4
2023-01-09T23:28:54.073Z,1.8
2023-01-09T23:33:54.580Z,1.5
2023-01-09T23:38:54.950Z,2.1
2023-01-09T23:43:55.598Z,1.4
2023-01-09T23:48:55.981Z,1.9
2023-01-09T23:53:56.530Z,1.6
2023-01-09T23:58:57.390Z,1.7
